This is the latest recevied weather packets stored in our database for station/object VU3OPX-13. If no packets are shown the sender has not sent any weather packets the latest 10 day(s).
| Time | Temp. | Humidity | Pressure | Rain* | Wind** | Luminosity | Snow |
|---|---|---|---|---|---|---|---|
| 1787464988 | 25.56° C | 80% | 1011 hPa | 0.25 mm | - | - | - |
| 1787463201 | 25° C | 81% | 1011 hPa | 0 mm | - | - | - |
| 1787461414 | 25° C | 80% | 1012 hPa | 0 mm | - | - | - |
| 1787459626 | 25° C | 80% | 1012 hPa | 0 mm | - | - | - |
| 1787457839 | 24.44° C | 83% | 1012 hPa | 0 mm | - | - | - |
| 1787456052 | 24.44° C | 83% | 1011 hPa | 0 mm | - | - | - |
| 1787454264 | 23.33° C | 87% | 1011 hPa | 0 mm | - | - | - |
| 1787452477 | 23.33° C | 86% | 1011 hPa | 0 mm | - | - | - |
| 1787450689 | 22.78° C | 91% | 1011 hPa | 0 mm | - | - | - |
| 1787448903 | 22.22° C | 90% | 1011 hPa | 0 mm | - | - | - |
| 1787447116 | 22.22° C | 92% | 1010 hPa | 0 mm | - | - | - |
| 1787445328 | 21.67° C | 93% | 1010 hPa | 0 mm | - | - | - |
| 1787443540 | 21.67° C | 93% | 1009 hPa | 0 mm | - | - | - |
| 1787441753 | 21.67° C | 93% | 1009 hPa | 0 mm | - | - | - |
| 1787439966 | 21.67° C | 93% | 1009 hPa | 0 mm | - | - | - |
| 1787438179 | 21.67° C | 93% | 1009 hPa | 0 mm | - | - | - |
| 1787434603 | 21.67° C | 94% | 1009 hPa | 0 mm | - | - | - |
| 1787432816 | 21.67° C | 95% | 1009 hPa | 0 mm | - | - | - |
| 1787431029 | 21.67° C | 95% | 1009 hPa | 0 mm | - | - | - |
| 1787429241 | 21.67° C | 93% | 1009 hPa | 0 mm | - | - | - |
| 1787427454 | 21.67° C | 93% | 1009 hPa | 0 mm | - | - | - |
| 1787425667 | 22.22° C | 91% | 1010 hPa | 0 mm | - | - | - |
| 1787423879 | 22.22° C | 91% | 1010 hPa | 0 mm | - | - | - |
| 1787422092 | 22.22° C | 91% | 1011 hPa | 0 mm | - | - | - |
| 1787420305 | 22.22° C | 91% | 1011 hPa | 0 mm | - | - | - |
* Rain latest hour (hover to see other rain measurements)
** Current wind speed in m/s (hover to see current wind gust speed)